sensor_id;sensor_type;location;lat;lon;timestamp;temperature;humidity
52867;DHT22;38739;53.324;6.862;2024-03-22T00:01:50;9.30;99.90
52867;DHT22;38739;53.324;6.862;2024-03-22T00:04:17;9.30;99.90
52867;DHT22;38739;53.324;6.862;2024-03-22T00:06:44;9.40;99.90
52867;DHT22;38739;53.324;6.862;2024-03-22T00:09:10;9.40;99.90
52867;DHT22;38739;53.324;6.862;2024-03-22T00:11:37;9.40;99.90
52867;DHT22;38739;53.324;6.862;2024-03-22T00:14:03;9.40;99.90
52867;DHT22;38739;53.324;6.862;2024-03-22T00:16:29;9.40;99.90
52867;DHT22;38739;53.324;6.862;2024-03-22T00:18:55;9.40;99.90
52867;DHT22;38739;53.324;6.862;2024-03-22T00:21:22;9.40;99.90
52867;DHT22;38739;53.324;6.862;2024-03-22T00:23:48;9.40;99.90
52867;DHT22;38739;53.324;6.862;2024-03-22T00:26:14;9.40;99.90
52867;DHT22;38739;53.324;6.862;2024-03-22T00:28:40;9.50;99.90
52867;DHT22;38739;53.324;6.862;2024-03-22T00:31:05;9.50;99.90
52867;DHT22;38739;53.324;6.862;2024-03-22T00:33:31;9.50;99.90
52867;DHT22;38739;53.324;6.862;2024-03-22T00:35:57;9.50;99.90
52867;DHT22;38739;53.324;6.862;2024-03-22T00:38:23;9.50;99.90
52867;DHT22;38739;53.324;6.862;2024-03-22T00:40:49;9.50;99.90
52867;DHT22;38739;53.324;6.862;2024-03-22T00:43:14;9.50;99.90
52867;DHT22;38739;53.324;6.862;2024-03-22T00:45:40;9.50;99.90
52867;DHT22;38739;53.324;6.862;2024-03-22T00:48:06;9.50;99.90
52867;DHT22;38739;53.324;6.862;2024-03-22T00:50:32;9.50;99.90
52867;DHT22;38739;53.324;6.862;2024-03-22T00:52:58;9.50;99.90
52867;DHT22;38739;53.324;6.862;2024-03-22T00:55:24;9.50;99.90
52867;DHT22;38739;53.324;6.862;2024-03-22T00:57:51;9.60;99.90
52867;DHT22;38739;53.324;6.862;2024-03-22T01:00:17;9.60;99.90
52867;DHT22;38739;53.324;6.862;2024-03-22T01:02:43;9.60;99.90
52867;DHT22;38739;53.324;6.862;2024-03-22T01:05:09;9.60;99.90
52867;DHT22;38739;53.324;6.862;2024-03-22T01:07:36;9.60;99.90
52867;DHT22;38739;53.324;6.862;2024-03-22T01:10:05;9.70;99.90
52867;DHT22;38739;53.324;6.862;2024-03-22T01:12:31;9.70;99.90
52867;DHT22;38739;53.324;6.862;2024-03-22T01:14:56;9.70;99.90
52867;DHT22;38739;53.324;6.862;2024-03-22T01:17:22;9.70;99.90
52867;DHT22;38739;53.324;6.862;2024-03-22T01:19:48;9.70;99.90
52867;DHT22;38739;53.324;6.862;2024-03-22T01:22:14;9.70;99.90
52867;DHT22;38739;53.324;6.862;2024-03-22T01:24:40;9.70;99.90
52867;DHT22;38739;53.324;6.862;2024-03-22T01:27:05;9.80;99.90
52867;DHT22;38739;53.324;6.862;2024-03-22T01:29:31;9.70;99.90
52867;DHT22;38739;53.324;6.862;2024-03-22T01:32:00;9.80;99.90
52867;DHT22;38739;53.324;6.862;2024-03-22T01:34:25;9.80;99.90
52867;DHT22;38739;53.324;6.862;2024-03-22T01:36:52;9.80;99.90
52867;DHT22;38739;53.324;6.862;2024-03-22T01:39:19;9.80;99.90
52867;DHT22;38739;53.324;6.862;2024-03-22T01:41:47;9.90;99.90
52867;DHT22;38739;53.324;6.862;2024-03-22T01:44:13;9.90;99.90
52867;DHT22;38739;53.324;6.862;2024-03-22T01:46:40;9.90;99.90
52867;DHT22;38739;53.324;6.862;2024-03-22T01:49:06;9.90;99.90
52867;DHT22;38739;53.324;6.862;2024-03-22T01:51:32;9.90;99.90
52867;DHT22;38739;53.324;6.862;2024-03-22T01:53:59;9.90;99.90
52867;DHT22;38739;53.324;6.862;2024-03-22T01:56:27;9.90;99.90
52867;DHT22;38739;53.324;6.862;2024-03-22T01:58:52;9.90;99.90
52867;DHT22;38739;53.324;6.862;2024-03-22T02:01:18;9.90;99.90
52867;DHT22;38739;53.324;6.862;2024-03-22T02:03:44;9.90;99.90
52867;DHT22;38739;53.324;6.862;2024-03-22T02:06:09;10.00;99.90
52867;DHT22;38739;53.324;6.862;2024-03-22T02:08:35;10.00;99.90
52867;DHT22;38739;53.324;6.862;2024-03-22T02:11:01;10.00;99.90
52867;DHT22;38739;53.324;6.862;2024-03-22T02:13:27;10.00;99.90
52867;DHT22;38739;53.324;6.862;2024-03-22T02:15:53;10.00;99.90
52867;DHT22;38739;53.324;6.862;2024-03-22T02:18:18;10.00;99.90
52867;DHT22;38739;53.324;6.862;2024-03-22T02:20:44;10.10;99.90
52867;DHT22;38739;53.324;6.862;2024-03-22T02:23:09;10.10;99.90
52867;DHT22;38739;53.324;6.862;2024-03-22T02:25:35;10.10;99.90
52867;DHT22;38739;53.324;6.862;2024-03-22T02:28:01;10.10;99.90
52867;DHT22;38739;53.324;6.862;2024-03-22T02:30:26;10.10;99.90
52867;DHT22;38739;53.324;6.862;2024-03-22T02:32:52;10.10;99.90
52867;DHT22;38739;53.324;6.862;2024-03-22T02:35:18;10.10;99.90
52867;DHT22;38739;53.324;6.862;2024-03-22T02:37:43;10.10;99.90
52867;DHT22;38739;53.324;6.862;2024-03-22T02:40:09;10.10;99.90
52867;DHT22;38739;53.324;6.862;2024-03-22T02:42:36;10.10;99.90
52867;DHT22;38739;53.324;6.862;2024-03-22T02:45:02;10.10;99.90
52867;DHT22;38739;53.324;6.862;2024-03-22T02:47:28;10.10;99.90
52867;DHT22;38739;53.324;6.862;2024-03-22T02:49:54;10.10;99.90
52867;DHT22;38739;53.324;6.862;2024-03-22T02:52:20;10.00;99.90
52867;DHT22;38739;53.324;6.862;2024-03-22T02:54:45;10.00;99.90
52867;DHT22;38739;53.324;6.862;2024-03-22T02:57:11;10.00;99.90
52867;DHT22;38739;53.324;6.862;2024-03-22T02:59:37;10.00;99.90
52867;DHT22;38739;53.324;6.862;2024-03-22T03:02:02;10.00;99.90
52867;DHT22;38739;53.324;6.862;2024-03-22T03:04:28;10.00;99.90
52867;DHT22;38739;53.324;6.862;2024-03-22T03:06:54;10.00;99.90
52867;DHT22;38739;53.324;6.862;2024-03-22T03:09:19;10.00;99.90
52867;DHT22;38739;53.324;6.862;2024-03-22T03:11:45;10.00;99.90
52867;DHT22;38739;53.324;6.862;2024-03-22T03:14:11;10.00;99.90
52867;DHT22;38739;53.324;6.862;2024-03-22T03:16:37;10.00;99.90
52867;DHT22;38739;53.324;6.862;2024-03-22T03:19:02;10.00;99.90
52867;DHT22;38739;53.324;6.862;2024-03-22T03:21:28;10.00;99.90
52867;DHT22;38739;53.324;6.862;2024-03-22T03:23:54;10.00;99.90
52867;DHT22;38739;53.324;6.862;2024-03-22T03:26:19;10.00;99.90
52867;DHT22;38739;53.324;6.862;2024-03-22T03:28:45;10.00;99.90
52867;DHT22;38739;53.324;6.862;2024-03-22T03:31:11;10.00;99.90
52867;DHT22;38739;53.324;6.862;2024-03-22T03:33:36;10.00;99.90
52867;DHT22;38739;53.324;6.862;2024-03-22T03:36:02;10.00;99.90
52867;DHT22;38739;53.324;6.862;2024-03-22T03:38:28;10.00;99.90
52867;DHT22;38739;53.324;6.862;2024-03-22T03:40:53;10.00;99.90
52867;DHT22;38739;53.324;6.862;2024-03-22T03:43:19;10.00;99.90
52867;DHT22;38739;53.324;6.862;2024-03-22T03:45:45;10.00;99.90
52867;DHT22;38739;53.324;6.862;2024-03-22T03:48:10;10.00;99.90
52867;DHT22;38739;53.324;6.862;2024-03-22T03:50:36;10.00;99.90
52867;DHT22;38739;53.324;6.862;2024-03-22T03:53:02;10.00;99.90
52867;DHT22;38739;53.324;6.862;2024-03-22T03:55:27;10.00;99.90
52867;DHT22;38739;53.324;6.862;2024-03-22T03:57:53;10.00;99.90
52867;DHT22;38739;53.324;6.862;2024-03-22T04:00:20;10.00;99.90
52867;DHT22;38739;53.324;6.862;2024-03-22T04:02:45;10.00;99.90
52867;DHT22;38739;53.324;6.862;2024-03-22T04:05:11;10.00;99.90
52867;DHT22;38739;53.324;6.862;2024-03-22T04:07:38;10.00;99.90
52867;DHT22;38739;53.324;6.862;2024-03-22T04:10:05;10.00;99.90
52867;DHT22;38739;53.324;6.862;2024-03-22T04:12:31;10.00;99.90
52867;DHT22;38739;53.324;6.862;2024-03-22T04:14:57;10.00;99.90
52867;DHT22;38739;53.324;6.862;2024-03-22T04:17:22;10.00;99.90
52867;DHT22;38739;53.324;6.862;2024-03-22T04:19:49;10.00;99.90
52867;DHT22;38739;53.324;6.862;2024-03-22T04:22:15;10.00;99.90
52867;DHT22;38739;53.324;6.862;2024-03-22T04:24:41;10.10;99.90
52867;DHT22;38739;53.324;6.862;2024-03-22T04:27:06;10.10;99.90
52867;DHT22;38739;53.324;6.862;2024-03-22T04:29:33;10.10;99.90
52867;DHT22;38739;53.324;6.862;2024-03-22T04:31:58;10.10;99.90
52867;DHT22;38739;53.324;6.862;2024-03-22T04:34:24;10.10;99.90
52867;DHT22;38739;53.324;6.862;2024-03-22T04:36:50;10.10;99.90
52867;DHT22;38739;53.324;6.862;2024-03-22T04:39:19;10.20;99.90
52867;DHT22;38739;53.324;6.862;2024-03-22T04:41:44;10.10;99.90
52867;DHT22;38739;53.324;6.862;2024-03-22T04:44:10;10.20;99.90
52867;DHT22;38739;53.324;6.862;2024-03-22T04:46:36;10.20;99.90
52867;DHT22;38739;53.324;6.862;2024-03-22T04:49:01;10.20;99.90
52867;DHT22;38739;53.324;6.862;2024-03-22T04:51:27;10.20;99.90
52867;DHT22;38739;53.324;6.862;2024-03-22T04:53:53;10.20;99.90
52867;DHT22;38739;53.324;6.862;2024-03-22T04:56:18;10.20;99.90
52867;DHT22;38739;53.324;6.862;2024-03-22T04:58:44;10.20;99.90
52867;DHT22;38739;53.324;6.862;2024-03-22T05:01:10;10.20;99.90
52867;DHT22;38739;53.324;6.862;2024-03-22T05:03:38;10.20;99.90
52867;DHT22;38739;53.324;6.862;2024-03-22T05:06:04;10.20;99.90
52867;DHT22;38739;53.324;6.862;2024-03-22T05:08:32;10.20;99.90
52867;DHT22;38739;53.324;6.862;2024-03-22T05:10:57;10.20;99.90
52867;DHT22;38739;53.324;6.862;2024-03-22T05:13:23;10.20;99.90
52867;DHT22;38739;53.324;6.862;2024-03-22T05:15:49;10.20;99.90
52867;DHT22;38739;53.324;6.862;2024-03-22T05:18:14;10.20;99.90
52867;DHT22;38739;53.324;6.862;2024-03-22T05:20:40;10.20;99.90
52867;DHT22;38739;53.324;6.862;2024-03-22T05:23:06;10.20;99.90
52867;DHT22;38739;53.324;6.862;2024-03-22T05:25:31;10.20;99.90
52867;DHT22;38739;53.324;6.862;2024-03-22T05:27:57;10.20;99.90
52867;DHT22;38739;53.324;6.862;2024-03-22T05:30:23;10.20;99.90
52867;DHT22;38739;53.324;6.862;2024-03-22T05:32:48;10.20;99.90
52867;DHT22;38739;53.324;6.862;2024-03-22T05:35:15;10.20;99.90
52867;DHT22;38739;53.324;6.862;2024-03-22T05:37:41;10.20;99.90
52867;DHT22;38739;53.324;6.862;2024-03-22T05:40:07;10.20;99.90
52867;DHT22;38739;53.324;6.862;2024-03-22T05:42:34;10.20;99.90
52867;DHT22;38739;53.324;6.862;2024-03-22T05:45:00;10.20;99.90
52867;DHT22;38739;53.324;6.862;2024-03-22T05:47:25;10.20;99.90
52867;DHT22;38739;53.324;6.862;2024-03-22T05:49:51;10.20;99.90
52867;DHT22;38739;53.324;6.862;2024-03-22T05:52:18;10.20;99.90
52867;DHT22;38739;53.324;6.862;2024-03-22T05:54:43;10.20;99.90
52867;DHT22;38739;53.324;6.862;2024-03-22T05:57:09;10.20;99.90
52867;DHT22;38739;53.324;6.862;2024-03-22T05:59:36;10.20;99.90
52867;DHT22;38739;53.324;6.862;2024-03-22T06:02:02;10.20;99.90
52867;DHT22;38739;53.324;6.862;2024-03-22T06:04:29;10.20;99.90
52867;DHT22;38739;53.324;6.862;2024-03-22T06:06:54;10.10;99.90
52867;DHT22;38739;53.324;6.862;2024-03-22T06:09:20;10.10;99.90
52867;DHT22;38739;53.324;6.862;2024-03-22T06:11:50;10.10;99.90
52867;DHT22;38739;53.324;6.862;2024-03-22T06:14:17;10.10;99.90
52867;DHT22;38739;53.324;6.862;2024-03-22T06:16:42;10.10;99.90
52867;DHT22;38739;53.324;6.862;2024-03-22T06:19:08;10.10;99.90
52867;DHT22;38739;53.324;6.862;2024-03-22T06:21:33;10.00;99.90
52867;DHT22;38739;53.324;6.862;2024-03-22T06:23:59;10.00;99.90
52867;DHT22;38739;53.324;6.862;2024-03-22T06:26:25;10.00;99.90
52867;DHT22;38739;53.324;6.862;2024-03-22T06:28:50;10.00;99.90
52867;DHT22;38739;53.324;6.862;2024-03-22T06:31:16;10.00;99.90
52867;DHT22;38739;53.324;6.862;2024-03-22T06:33:42;10.00;99.90
52867;DHT22;38739;53.324;6.862;2024-03-22T06:36:08;10.00;99.90
52867;DHT22;38739;53.324;6.862;2024-03-22T06:38:34;10.00;99.90
52867;DHT22;38739;53.324;6.862;2024-03-22T06:40:59;9.90;99.90
52867;DHT22;38739;53.324;6.862;2024-03-22T06:43:25;10.00;99.90
52867;DHT22;38739;53.324;6.862;2024-03-22T06:45:51;9.90;99.90
52867;DHT22;38739;53.324;6.862;2024-03-22T06:48:17;10.00;99.90
52867;DHT22;38739;53.324;6.862;2024-03-22T06:50:43;10.00;99.90
52867;DHT22;38739;53.324;6.862;2024-03-22T06:53:08;9.90;99.90
52867;DHT22;38739;53.324;6.862;2024-03-22T06:55:37;9.90;99.90
52867;DHT22;38739;53.324;6.862;2024-03-22T06:58:03;9.90;99.90
52867;DHT22;38739;53.324;6.862;2024-03-22T07:00:28;9.90;99.90
52867;DHT22;38739;53.324;6.862;2024-03-22T07:02:54;9.90;99.90
52867;DHT22;38739;53.324;6.862;2024-03-22T07:05:21;9.80;99.90
52867;DHT22;38739;53.324;6.862;2024-03-22T07:07:47;9.80;99.90
52867;DHT22;38739;53.324;6.862;2024-03-22T07:10:15;9.80;99.90
52867;DHT22;38739;53.324;6.862;2024-03-22T07:12:41;9.80;99.90
52867;DHT22;38739;53.324;6.862;2024-03-22T07:15:06;9.70;99.90
52867;DHT22;38739;53.324;6.862;2024-03-22T07:17:32;9.70;99.90
52867;DHT22;38739;53.324;6.862;2024-03-22T07:19:58;9.70;99.90
52867;DHT22;38739;53.324;6.862;2024-03-22T07:22:24;9.70;99.90
52867;DHT22;38739;53.324;6.862;2024-03-22T07:24:49;9.70;99.90
52867;DHT22;38739;53.324;6.862;2024-03-22T07:27:16;9.70;99.90
52867;DHT22;38739;53.324;6.862;2024-03-22T07:29:42;9.70;99.90
52867;DHT22;38739;53.324;6.862;2024-03-22T07:32:09;9.70;99.90
52867;DHT22;38739;53.324;6.862;2024-03-22T07:34:34;9.70;99.90
52867;DHT22;38739;53.324;6.862;2024-03-22T07:37:00;9.70;99.90
52867;DHT22;38739;53.324;6.862;2024-03-22T07:39:26;9.70;99.90
52867;DHT22;38739;53.324;6.862;2024-03-22T07:41:52;9.70;99.90
52867;DHT22;38739;53.324;6.862;2024-03-22T07:44:17;9.70;99.90
52867;DHT22;38739;53.324;6.862;2024-03-22T07:46:45;9.70;99.90
52867;DHT22;38739;53.324;6.862;2024-03-22T07:49:12;9.70;99.90
52867;DHT22;38739;53.324;6.862;2024-03-22T07:51:37;9.70;99.90
52867;DHT22;38739;53.324;6.862;2024-03-22T07:54:03;9.70;99.90
52867;DHT22;38739;53.324;6.862;2024-03-22T07:56:29;9.70;99.90
52867;DHT22;38739;53.324;6.862;2024-03-22T07:58:54;9.70;99.90
52867;DHT22;38739;53.324;6.862;2024-03-22T08:01:24;9.80;99.90
52867;DHT22;38739;53.324;6.862;2024-03-22T08:03:51;9.70;99.90
52867;DHT22;38739;53.324;6.862;2024-03-22T08:06:16;9.80;99.90
52867;DHT22;38739;53.324;6.862;2024-03-22T08:08:42;9.80;99.90
52867;DHT22;38739;53.324;6.862;2024-03-22T08:11:08;9.80;99.90
52867;DHT22;38739;53.324;6.862;2024-03-22T08:13:34;9.70;99.90
52867;DHT22;38739;53.324;6.862;2024-03-22T08:16:00;9.80;99.90
52867;DHT22;38739;53.324;6.862;2024-03-22T08:18:26;9.80;99.90
52867;DHT22;38739;53.324;6.862;2024-03-22T08:20:52;9.70;99.90
52867;DHT22;38739;53.324;6.862;2024-03-22T08:23:17;9.80;99.90
52867;DHT22;38739;53.324;6.862;2024-03-22T08:25:46;9.80;99.90
52867;DHT22;38739;53.324;6.862;2024-03-22T08:28:11;9.80;99.90
52867;DHT22;38739;53.324;6.862;2024-03-22T08:30:39;9.90;99.90
52867;DHT22;38739;53.324;6.862;2024-03-22T08:33:05;9.80;99.90
52867;DHT22;38739;53.324;6.862;2024-03-22T08:35:31;9.90;99.90
52867;DHT22;38739;53.324;6.862;2024-03-22T08:37:57;9.80;99.90
52867;DHT22;38739;53.324;6.862;2024-03-22T08:40:24;9.90;99.90
52867;DHT22;38739;53.324;6.862;2024-03-22T08:42:49;9.90;99.90
52867;DHT22;38739;53.324;6.862;2024-03-22T08:45:15;9.90;99.90
52867;DHT22;38739;53.324;6.862;2024-03-22T08:47:42;10.00;99.90
52867;DHT22;38739;53.324;6.862;2024-03-22T08:50:09;10.00;99.90
52867;DHT22;38739;53.324;6.862;2024-03-22T08:52:34;9.90;99.90
52867;DHT22;38739;53.324;6.862;2024-03-22T08:55:01;10.00;99.90
52867;DHT22;38739;53.324;6.862;2024-03-22T08:57:27;10.00;99.90
52867;DHT22;38739;53.324;6.862;2024-03-22T08:59:53;10.00;99.90
52867;DHT22;38739;53.324;6.862;2024-03-22T09:02:19;10.00;99.90
52867;DHT22;38739;53.324;6.862;2024-03-22T09:04:45;10.00;99.90
52867;DHT22;38739;53.324;6.862;2024-03-22T09:07:10;10.00;99.90
52867;DHT22;38739;53.324;6.862;2024-03-22T09:09:36;10.00;99.90
52867;DHT22;38739;53.324;6.862;2024-03-22T09:12:02;10.00;99.90
52867;DHT22;38739;53.324;6.862;2024-03-22T09:14:28;10.00;99.90
52867;DHT22;38739;53.324;6.862;2024-03-22T09:16:53;10.00;99.90
52867;DHT22;38739;53.324;6.862;2024-03-22T09:19:19;10.00;99.90
52867;DHT22;38739;53.324;6.862;2024-03-22T09:21:45;10.00;99.90
52867;DHT22;38739;53.324;6.862;2024-03-22T09:24:10;10.00;99.90
52867;DHT22;38739;53.324;6.862;2024-03-22T09:26:36;10.00;99.90
52867;DHT22;38739;53.324;6.862;2024-03-22T09:29:01;10.00;99.90
52867;DHT22;38739;53.324;6.862;2024-03-22T09:31:29;10.10;99.90
52867;DHT22;38739;53.324;6.862;2024-03-22T09:33:56;10.10;99.90
52867;DHT22;38739;53.324;6.862;2024-03-22T09:36:22;10.10;99.90
52867;DHT22;38739;53.324;6.862;2024-03-22T09:38:47;10.10;99.90
52867;DHT22;38739;53.324;6.862;2024-03-22T09:41:14;10.00;99.90
52867;DHT22;38739;53.324;6.862;2024-03-22T09:43:42;10.00;99.90
52867;DHT22;38739;53.324;6.862;2024-03-22T09:46:10;10.00;99.90
52867;DHT22;38739;53.324;6.862;2024-03-22T09:48:37;10.00;99.90
52867;DHT22;38739;53.324;6.862;2024-03-22T09:51:03;10.00;99.90
52867;DHT22;38739;53.324;6.862;2024-03-22T09:53:30;10.00;99.90
52867;DHT22;38739;53.324;6.862;2024-03-22T09:55:59;10.00;99.90
52867;DHT22;38739;53.324;6.862;2024-03-22T09:58:27;10.00;99.90
52867;DHT22;38739;53.324;6.862;2024-03-22T10:00:53;10.00;99.90
52867;DHT22;38739;53.324;6.862;2024-03-22T10:03:21;10.00;99.90
52867;DHT22;38739;53.324;6.862;2024-03-22T10:05:46;10.00;99.90
52867;DHT22;38739;53.324;6.862;2024-03-22T10:08:13;10.10;99.90
52867;DHT22;38739;53.324;6.862;2024-03-22T10:10:38;10.00;99.90
52867;DHT22;38739;53.324;6.862;2024-03-22T10:13:04;10.10;99.90
52867;DHT22;38739;53.324;6.862;2024-03-22T10:15:32;10.10;99.90
52867;DHT22;38739;53.324;6.862;2024-03-22T10:17:58;10.10;99.90
52867;DHT22;38739;53.324;6.862;2024-03-22T10:20:24;10.10;99.90
52867;DHT22;38739;53.324;6.862;2024-03-22T10:23:00;10.10;99.90
52867;DHT22;38739;53.324;6.862;2024-03-22T10:25:26;10.20;99.90
52867;DHT22;38739;53.324;6.862;2024-03-22T10:27:54;10.20;99.90
52867;DHT22;38739;53.324;6.862;2024-03-22T10:30:21;10.20;99.90
52867;DHT22;38739;53.324;6.862;2024-03-22T10:32:48;10.20;99.90
52867;DHT22;38739;53.324;6.862;2024-03-22T10:35:14;10.20;99.90
52867;DHT22;38739;53.324;6.862;2024-03-22T10:37:40;10.20;99.90
52867;DHT22;38739;53.324;6.862;2024-03-22T10:40:07;10.20;99.90
52867;DHT22;38739;53.324;6.862;2024-03-22T10:42:40;10.20;99.90
52867;DHT22;38739;53.324;6.862;2024-03-22T10:45:10;10.20;99.90
52867;DHT22;38739;53.324;6.862;2024-03-22T10:47:37;10.30;99.90
52867;DHT22;38739;53.324;6.862;2024-03-22T10:50:08;10.30;99.90
52867;DHT22;38739;53.324;6.862;2024-03-22T10:52:43;10.30;99.90
52867;DHT22;38739;53.324;6.862;2024-03-22T10:55:18;10.30;99.90
52867;DHT22;38739;53.324;6.862;2024-03-22T10:57:45;10.30;99.90
52867;DHT22;38739;53.324;6.862;2024-03-22T11:00:12;10.40;99.90
52867;DHT22;38739;53.324;6.862;2024-03-22T11:02:43;10.40;99.90
52867;DHT22;38739;53.324;6.862;2024-03-22T11:05:17;10.50;99.90
52867;DHT22;38739;53.324;6.862;2024-03-22T11:07:46;10.50;99.90
52867;DHT22;38739;53.324;6.862;2024-03-22T11:10:12;10.50;99.90
52867;DHT22;38739;53.324;6.862;2024-03-22T11:12:39;10.50;99.90
52867;DHT22;38739;53.324;6.862;2024-03-22T11:15:05;10.50;99.90
52867;DHT22;38739;53.324;6.862;2024-03-22T11:17:31;10.60;99.90
52867;DHT22;38739;53.324;6.862;2024-03-22T11:19:57;10.60;99.90
52867;DHT22;38739;53.324;6.862;2024-03-22T11:22:22;10.60;99.90
52867;DHT22;38739;53.324;6.862;2024-03-22T11:24:50;10.60;99.90
52867;DHT22;38739;53.324;6.862;2024-03-22T11:27:16;10.70;99.90
52867;DHT22;38739;53.324;6.862;2024-03-22T11:29:41;10.70;99.90
52867;DHT22;38739;53.324;6.862;2024-03-22T11:32:09;10.70;99.90
52867;DHT22;38739;53.324;6.862;2024-03-22T11:34:39;10.60;99.90
52867;DHT22;38739;53.324;6.862;2024-03-22T11:37:05;10.60;99.90
52867;DHT22;38739;53.324;6.862;2024-03-22T11:39:37;10.60;99.90
52867;DHT22;38739;53.324;6.862;2024-03-22T11:42:07;10.60;99.90
52867;DHT22;38739;53.324;6.862;2024-03-22T11:44:36;10.50;99.90
52867;DHT22;38739;53.324;6.862;2024-03-22T11:47:03;10.50;99.90
52867;DHT22;38739;53.324;6.862;2024-03-22T11:49:29;10.50;99.90
52867;DHT22;38739;53.324;6.862;2024-03-22T11:51:58;10.50;99.90
52867;DHT22;38739;53.324;6.862;2024-03-22T11:54:24;10.50;99.90
52867;DHT22;38739;53.324;6.862;2024-03-22T11:56:50;10.50;99.90
52867;DHT22;38739;53.324;6.862;2024-03-22T11:59:19;10.50;99.90
52867;DHT22;38739;53.324;6.862;2024-03-22T12:01:45;10.50;99.90
52867;DHT22;38739;53.324;6.862;2024-03-22T12:04:11;10.50;99.90
52867;DHT22;38739;53.324;6.862;2024-03-22T12:06:44;10.40;99.90
52867;DHT22;38739;53.324;6.862;2024-03-22T12:09:11;10.50;99.90
52867;DHT22;38739;53.324;6.862;2024-03-22T12:11:40;10.40;99.90
52867;DHT22;38739;53.324;6.862;2024-03-22T12:14:06;10.50;99.90
52867;DHT22;38739;53.324;6.862;2024-03-22T12:16:32;10.60;99.90
52867;DHT22;38739;53.324;6.862;2024-03-22T12:18:58;10.60;99.90
52867;DHT22;38739;53.324;6.862;2024-03-22T12:21:24;10.70;99.90
52867;DHT22;38739;53.324;6.862;2024-03-22T12:23:50;10.80;99.90
52867;DHT22;38739;53.324;6.862;2024-03-22T12:26:15;10.80;99.90
52867;DHT22;38739;53.324;6.862;2024-03-22T12:28:41;10.80;99.90
52867;DHT22;38739;53.324;6.862;2024-03-22T12:31:08;10.80;99.90
52867;DHT22;38739;53.324;6.862;2024-03-22T12:33:34;10.90;99.90
52867;DHT22;38739;53.324;6.862;2024-03-22T12:35:59;10.90;99.90
52867;DHT22;38739;53.324;6.862;2024-03-22T12:38:25;10.90;99.90
52867;DHT22;38739;53.324;6.862;2024-03-22T12:40:51;10.90;99.90
52867;DHT22;38739;53.324;6.862;2024-03-22T12:43:17;11.00;99.90
52867;DHT22;38739;53.324;6.862;2024-03-22T12:45:43;11.00;99.90
52867;DHT22;38739;53.324;6.862;2024-03-22T12:48:08;11.00;99.90
52867;DHT22;38739;53.324;6.862;2024-03-22T12:50:35;11.00;99.90
52867;DHT22;38739;53.324;6.862;2024-03-22T12:53:01;11.00;99.90
52867;DHT22;38739;53.324;6.862;2024-03-22T12:55:26;11.10;99.90
52867;DHT22;38739;53.324;6.862;2024-03-22T12:57:54;11.10;99.90
52867;DHT22;38739;53.324;6.862;2024-03-22T13:00:20;11.00;99.90
52867;DHT22;38739;53.324;6.862;2024-03-22T13:02:46;11.00;99.90
52867;DHT22;38739;53.324;6.862;2024-03-22T13:05:17;11.00;99.90
52867;DHT22;38739;53.324;6.862;2024-03-22T13:07:43;10.90;99.90
52867;DHT22;38739;53.324;6.862;2024-03-22T13:10:09;10.90;99.90
52867;DHT22;38739;53.324;6.862;2024-03-22T13:12:35;10.90;99.90
52867;DHT22;38739;53.324;6.862;2024-03-22T13:15:02;10.80;99.90
52867;DHT22;38739;53.324;6.862;2024-03-22T13:17:28;10.80;99.90
52867;DHT22;38739;53.324;6.862;2024-03-22T13:19:53;10.70;99.90
52867;DHT22;38739;53.324;6.862;2024-03-22T13:22:19;10.70;99.90
52867;DHT22;38739;53.324;6.862;2024-03-22T13:24:45;10.60;99.90
52867;DHT22;38739;53.324;6.862;2024-03-22T13:27:12;10.60;99.90
52867;DHT22;38739;53.324;6.862;2024-03-22T13:29:39;10.60;99.90
52867;DHT22;38739;53.324;6.862;2024-03-22T13:32:05;10.60;99.90
52867;DHT22;38739;53.324;6.862;2024-03-22T13:34:34;10.60;99.90
52867;DHT22;38739;53.324;6.862;2024-03-22T13:37:00;10.60;99.90
52867;DHT22;38739;53.324;6.862;2024-03-22T13:39:25;10.60;99.90
52867;DHT22;38739;53.324;6.862;2024-03-22T13:41:51;10.60;99.90
52867;DHT22;38739;53.324;6.862;2024-03-22T13:44:17;10.70;99.90
52867;DHT22;38739;53.324;6.862;2024-03-22T13:46:42;10.60;99.90
52867;DHT22;38739;53.324;6.862;2024-03-22T13:49:14;10.50;99.90
52867;DHT22;38739;53.324;6.862;2024-03-22T13:51:43;10.60;99.90
52867;DHT22;38739;53.324;6.862;2024-03-22T13:54:09;10.60;99.90
52867;DHT22;38739;53.324;6.862;2024-03-22T13:56:36;10.60;99.90
52867;DHT22;38739;53.324;6.862;2024-03-22T13:59:03;10.60;99.90
52867;DHT22;38739;53.324;6.862;2024-03-22T14:01:32;10.60;99.90
52867;DHT22;38739;53.324;6.862;2024-03-22T14:03:57;10.50;99.90
52867;DHT22;38739;53.324;6.862;2024-03-22T14:06:23;10.50;99.90
52867;DHT22;38739;53.324;6.862;2024-03-22T14:08:49;10.50;99.90
52867;DHT22;38739;53.324;6.862;2024-03-22T14:11:14;10.50;99.90
52867;DHT22;38739;53.324;6.862;2024-03-22T14:13:40;10.50;99.90
52867;DHT22;38739;53.324;6.862;2024-03-22T14:16:06;10.50;99.90
52867;DHT22;38739;53.324;6.862;2024-03-22T14:18:33;10.50;99.90
52867;DHT22;38739;53.324;6.862;2024-03-22T14:21:01;10.40;99.90
52867;DHT22;38739;53.324;6.862;2024-03-22T14:23:28;10.40;99.90
52867;DHT22;38739;53.324;6.862;2024-03-22T14:25:55;10.30;99.90
52867;DHT22;38739;53.324;6.862;2024-03-22T14:28:21;10.30;99.90
52867;DHT22;38739;53.324;6.862;2024-03-22T14:30:47;10.20;99.90
52867;DHT22;38739;53.324;6.862;2024-03-22T14:33:13;10.20;99.90
52867;DHT22;38739;53.324;6.862;2024-03-22T14:35:38;10.20;99.90
52867;DHT22;38739;53.324;6.862;2024-03-22T14:38:04;10.10;99.90
52867;DHT22;38739;53.324;6.862;2024-03-22T14:40:30;10.10;99.90
52867;DHT22;38739;53.324;6.862;2024-03-22T14:43:02;10.10;99.90
52867;DHT22;38739;53.324;6.862;2024-03-22T14:45:28;10.10;99.90
52867;DHT22;38739;53.324;6.862;2024-03-22T14:47:54;10.10;99.90
52867;DHT22;38739;53.324;6.862;2024-03-22T14:50:20;10.10;99.90
52867;DHT22;38739;53.324;6.862;2024-03-22T14:52:48;10.10;99.90
52867;DHT22;38739;53.324;6.862;2024-03-22T14:55:14;10.10;99.90
52867;DHT22;38739;53.324;6.862;2024-03-22T14:57:39;10.10;99.90
52867;DHT22;38739;53.324;6.862;2024-03-22T15:00:06;10.20;99.90
52867;DHT22;38739;53.324;6.862;2024-03-22T15:02:36;10.20;99.90
52867;DHT22;38739;53.324;6.862;2024-03-22T15:05:02;10.20;99.90
52867;DHT22;38739;53.324;6.862;2024-03-22T15:07:27;10.20;99.90
52867;DHT22;38739;53.324;6.862;2024-03-22T15:09:53;10.20;99.90
52867;DHT22;38739;53.324;6.862;2024-03-22T15:12:19;10.20;99.90
52867;DHT22;38739;53.324;6.862;2024-03-22T15:14:45;10.20;99.90
52867;DHT22;38739;53.324;6.862;2024-03-22T15:17:10;10.20;99.90
52867;DHT22;38739;53.324;6.862;2024-03-22T15:19:37;10.10;99.90
52867;DHT22;38739;53.324;6.862;2024-03-22T15:22:03;10.10;99.90
52867;DHT22;38739;53.324;6.862;2024-03-22T15:24:29;10.10;99.90
52867;DHT22;38739;53.324;6.862;2024-03-22T15:26:55;10.10;99.90
52867;DHT22;38739;53.324;6.862;2024-03-22T15:29:21;10.10;99.90